createdAt,value
2019-05-01T00:01:01.423Z,57.10
2019-05-01T00:03:31.456Z,57.20
2019-05-01T00:06:01.450Z,57.20
2019-05-01T00:08:29.770Z,57.10
2019-05-01T00:10:58.054Z,57.10
2019-05-01T00:13:26.650Z,57.10
2019-05-01T00:15:54.976Z,57.10
2019-05-01T00:18:23.411Z,57.10
2019-05-01T00:20:51.692Z,57.10
2019-05-01T00:23:20.049Z,57.10
2019-05-01T00:25:48.322Z,57.10
2019-05-01T00:28:16.788Z,57.10
2019-05-01T00:30:45.066Z,57.00
2019-05-01T00:33:13.357Z,57.00
2019-05-01T00:35:41.628Z,57.00
2019-05-01T00:38:10.026Z,57.00
2019-05-01T00:40:38.304Z,57.00
2019-05-01T00:43:06.575Z,57.00
2019-05-01T00:45:34.866Z,57.10
2019-05-01T00:48:03.203Z,57.10
2019-05-01T00:50:31.578Z,57.20
2019-05-01T00:52:59.958Z,57.10
2019-05-01T00:55:39.150Z,57.10
2019-05-01T00:58:12.003Z,57.10
2019-05-01T01:00:44.880Z,57.10
2019-05-01T01:03:13.198Z,57.10
2019-05-01T01:05:41.584Z,57.10
2019-05-01T01:08:09.919Z,57.10
2019-05-01T01:10:38.204Z,57.00
2019-05-01T01:13:06.555Z,57.00
2019-05-01T01:15:35.000Z,57.20
2019-05-01T01:18:03.326Z,56.90
2019-05-01T01:20:33.041Z,56.90
2019-05-01T01:23:01.352Z,56.90
2019-05-01T01:25:29.843Z,57.00
2019-05-01T01:27:58.537Z,56.90
2019-05-01T01:30:26.968Z,56.90
2019-05-01T01:32:55.333Z,57.00
2019-05-01T01:35:23.694Z,57.00
2019-05-01T01:37:51.994Z,56.90
2019-05-01T01:40:20.391Z,56.90
2019-05-01T01:42:50.545Z,56.90
2019-05-01T01:45:20.571Z,56.90
2019-05-01T01:48:06.871Z,56.90
2019-05-01T01:50:37.159Z,56.90
2019-05-01T01:53:05.278Z,56.80
2019-05-01T01:55:33.657Z,56.90
2019-05-01T01:58:02.064Z,56.80
2019-05-01T02:00:41.287Z,56.90
2019-05-01T02:03:09.969Z,56.80
2019-05-01T02:05:39.969Z,56.80
2019-05-01T02:08:09.071Z,56.80
2019-05-01T02:10:43.023Z,56.80
2019-05-01T02:13:07.532Z,56.80
2019-05-01T02:15:35.882Z,56.70
2019-05-01T02:18:04.362Z,56.70
2019-05-01T02:20:32.761Z,56.80
2019-05-01T02:23:01.100Z,56.70
2019-05-01T02:25:30.441Z,56.70
2019-05-01T02:28:16.778Z,56.70
2019-05-01T02:30:46.708Z,56.70
2019-05-01T02:33:15.066Z,56.70
2019-05-01T02:35:43.885Z,56.80
2019-05-01T02:38:12.213Z,56.70
2019-05-01T02:40:46.588Z,56.70
2019-05-01T02:43:16.484Z,56.60
2019-05-01T02:45:44.948Z,56.70
2019-05-01T02:48:14.962Z,56.70
2019-05-01T02:50:44.124Z,56.60
2019-05-01T02:53:12.493Z,56.70
2019-05-01T02:55:42.480Z,56.60
2019-05-01T02:58:10.785Z,56.60
2019-05-01T03:00:39.062Z,56.60
2019-05-01T03:03:07.341Z,56.60
2019-05-01T03:05:35.629Z,56.60
2019-05-01T03:08:03.902Z,56.60
2019-05-01T03:10:32.204Z,56.60
2019-05-01T03:13:00.553Z,56.60
2019-05-01T03:15:28.835Z,56.60
2019-05-01T03:17:58.747Z,56.60
2019-05-01T03:20:45.093Z,56.60
2019-05-01T03:23:15.003Z,56.60
2019-05-01T03:25:43.457Z,56.50
2019-05-01T03:28:12.389Z,56.60
2019-05-01T03:30:40.769Z,57.00
2019-05-01T03:33:09.138Z,56.50
2019-05-01T03:35:37.468Z,56.50
2019-05-01T03:38:05.764Z,56.50
2019-05-01T03:40:34.039Z,56.50
2019-05-01T03:43:02.330Z,56.50
2019-05-01T03:45:33.958Z,56.50
2019-05-01T03:48:00.662Z,56.50
2019-05-01T03:50:29.013Z,56.50
2019-05-01T03:52:57.295Z,56.50
2019-05-01T03:55:25.576Z,56.40
2019-05-01T03:57:53.876Z,56.50
2019-05-01T04:00:38.892Z,56.40
2019-05-01T04:03:17.929Z,56.40
2019-05-01T04:05:46.221Z,56.40
2019-05-01T04:08:14.582Z,56.50
2019-05-01T04:10:42.927Z,56.40
2019-05-01T04:13:11.302Z,56.40
2019-05-01T04:15:39.698Z,56.50
2019-05-01T04:18:09.102Z,56.50
2019-05-01T04:20:37.403Z,56.50
2019-05-01T04:23:06.203Z,56.50
2019-05-01T04:25:34.597Z,56.60
2019-05-01T04:28:04.537Z,56.50
2019-05-01T04:30:34.533Z,56.60
2019-05-01T04:33:04.545Z,56.50
2019-05-01T04:35:49.497Z,56.60
2019-05-01T04:38:18.421Z,56.60
2019-05-01T04:40:46.734Z,56.60
2019-05-01T04:43:15.083Z,56.50
2019-05-01T04:45:43.477Z,56.60
2019-05-01T04:48:11.826Z,56.60
2019-05-01T04:50:40.296Z,56.60
2019-05-01T04:53:08.568Z,56.60
2019-05-01T04:55:37.137Z,56.60
2019-05-01T04:58:05.487Z,56.60
2019-05-01T05:00:33.972Z,56.60
2019-05-01T05:03:09.952Z,56.60
2019-05-01T05:05:38.343Z,56.60
2019-05-01T05:08:06.834Z,56.60
2019-05-01T05:10:35.283Z,56.60
2019-05-01T05:13:07.556Z,56.60
2019-05-01T05:15:37.500Z,56.60
2019-05-01T05:18:05.794Z,56.60
2019-05-01T05:20:34.344Z,56.50
2019-05-01T05:23:02.636Z,56.70
2019-05-01T05:25:30.941Z,56.70
2019-05-01T05:27:59.382Z,56.60
2019-05-01T05:30:27.674Z,56.50
2019-05-01T05:32:56.115Z,56.60
2019-05-01T05:35:24.963Z,56.50
2019-05-01T05:37:56.222Z,56.60
2019-05-01T05:40:30.664Z,56.60
2019-05-01T05:42:58.942Z,56.50
2019-05-01T05:45:27.240Z,56.60
2019-05-01T05:47:55.531Z,56.60
2019-05-01T05:50:25.556Z,56.60
2019-05-01T05:53:11.664Z,56.60
2019-05-01T05:55:41.600Z,56.70
2019-05-01T05:58:15.404Z,56.90
2019-05-01T06:01:04.295Z,57.20
2019-05-01T06:03:50.464Z,57.40
2019-05-01T06:06:26.499Z,57.70
2019-05-01T06:08:54.771Z,57.90
2019-05-01T06:11:43.295Z,58.10
2019-05-01T06:14:31.440Z,58.30
2019-05-01T06:17:06.621Z,58.30
2019-05-01T06:19:36.537Z,58.50
2019-05-01T06:22:25.431Z,58.70
2019-05-01T06:25:14.557Z,58.80
2019-05-01T06:27:37.677Z,58.90
2019-05-01T06:30:11.057Z,59.00
2019-05-01T06:32:39.893Z,59.10
2019-05-01T06:35:08.344Z,59.20
2019-05-01T06:38:04.269Z,59.20
2019-05-01T06:40:42.943Z,59.50
2019-05-01T06:43:20.214Z,59.50
2019-05-01T06:46:06.833Z,59.70
2019-05-01T06:48:36.771Z,59.90
2019-05-01T06:51:22.933Z,59.90
2019-05-01T06:53:51.257Z,60.10
2019-05-01T06:56:19.538Z,60.20
2019-05-01T06:58:51.096Z,60.50
2019-05-01T07:01:19.188Z,60.00
2019-05-01T07:04:02.877Z,60.80
2019-05-01T07:06:17.871Z,60.80
2019-05-01T07:08:46.150Z,61.00
2019-05-01T07:11:15.601Z,61.10
2019-05-01T07:13:55.665Z,61.10
2019-05-01T07:16:23.323Z,61.10
2019-05-01T07:18:52.574Z,61.20
2019-05-01T07:21:22.757Z,61.30
2019-05-01T07:23:52.183Z,61.30
2019-05-01T07:26:22.824Z,61.20
2019-05-01T07:28:52.712Z,61.20
2019-05-01T07:31:21.061Z,61.10
2019-05-01T07:33:51.257Z,61.20
2019-05-01T07:36:19.437Z,61.20
2019-05-01T07:38:47.739Z,61.20
2019-05-01T07:41:16.017Z,61.10
2019-05-01T07:43:48.652Z,61.20
2019-05-01T07:46:30.819Z,61.20
2019-05-01T07:48:59.184Z,61.30
2019-05-01T07:51:27.470Z,61.20
2019-05-01T07:53:58.971Z,61.20
2019-05-01T07:56:28.160Z,61.10
2019-05-01T07:58:55.790Z,61.10
2019-05-01T08:01:43.805Z,61.10
2019-05-01T08:04:13.746Z,61.00
2019-05-01T08:06:42.094Z,61.00
2019-05-01T08:09:11.203Z,61.00
2019-05-01T08:11:44.016Z,61.10
2019-05-01T08:14:12.004Z,61.10
2019-05-01T08:16:42.571Z,61.30
2019-05-01T08:19:12.114Z,61.30
2019-05-01T08:22:01.804Z,61.30
2019-05-01T08:24:28.584Z,61.40
2019-05-01T08:26:56.874Z,61.40
2019-05-01T08:29:26.876Z,61.50
2019-05-01T08:31:58.869Z,61.60
2019-05-01T08:34:31.292Z,61.60
2019-05-01T08:36:59.653Z,61.60
2019-05-01T08:39:28.098Z,61.40
2019-05-01T08:41:56.385Z,61.30
2019-05-01T08:44:29.535Z,61.40
2019-05-01T08:47:03.799Z,61.40
2019-05-01T08:49:33.748Z,61.30
2019-05-01T08:52:04.870Z,61.30
2019-05-01T08:54:33.528Z,61.30
2019-05-01T08:57:02.057Z,61.20
2019-05-01T08:59:30.329Z,61.30
2019-05-01T09:02:09.018Z,61.20
2019-05-01T09:04:30.472Z,61.10
2019-05-01T09:06:58.629Z,61.10
2019-05-01T09:09:26.905Z,61.10
2019-05-01T09:11:55.210Z,61.10
2019-05-01T09:14:23.963Z,61.20
2019-05-01T09:16:52.634Z,61.10
2019-05-01T09:19:21.033Z,61.00
2019-05-01T09:21:49.319Z,61.00
2019-05-01T09:24:17.667Z,60.90
2019-05-01T09:26:50.164Z,60.90
2019-05-01T09:29:35.908Z,61.80
2019-05-01T09:32:05.075Z,60.90
2019-05-01T09:34:34.725Z,61.00
2019-05-01T09:37:03.041Z,60.90
2019-05-01T09:39:31.673Z,60.90
2019-05-01T09:41:59.956Z,60.90
2019-05-01T09:44:28.249Z,60.70
2019-05-01T09:46:56.518Z,60.60
2019-05-01T09:49:24.989Z,60.40
2019-05-01T09:51:57.877Z,60.30
2019-05-01T09:54:36.291Z,60.10
2019-05-01T09:57:04.642Z,60.00
2019-05-01T09:59:32.955Z,59.90
2019-05-01T10:02:02.986Z,59.90
2019-05-01T10:04:32.399Z,59.70
2019-05-01T10:07:02.226Z,59.70
2019-05-01T10:09:30.742Z,59.60
2019-05-01T10:11:59.019Z,59.60
2019-05-01T10:14:27.316Z,59.60
2019-05-01T10:16:55.598Z,59.60
2019-05-01T10:19:23.958Z,59.50
2019-05-01T10:21:52.238Z,59.60
2019-05-01T10:24:20.545Z,59.60
2019-05-01T10:26:50.544Z,59.70
2019-05-01T10:29:25.991Z,59.70
2019-05-01T10:32:06.599Z,59.70
2019-05-01T10:34:52.638Z,59.80
2019-05-01T10:37:23.555Z,59.70
2019-05-01T10:39:54.147Z,59.80
2019-05-01T10:42:20.948Z,59.90
2019-05-01T10:44:49.242Z,59.90
2019-05-01T10:47:17.528Z,59.80
2019-05-01T10:49:45.832Z,59.80
2019-05-01T10:52:14.679Z,59.80
2019-05-01T10:54:43.180Z,59.90
2019-05-01T10:57:13.012Z,59.90
2019-05-01T10:59:41.418Z,59.80
2019-05-01T11:02:11.338Z,60.60
2019-05-01T11:04:39.628Z,59.70
2019-05-01T11:07:07.907Z,59.80
2019-05-01T11:09:36.179Z,59.40
2019-05-01T11:12:04.490Z,59.40
2019-05-01T11:14:32.762Z,59.20
2019-05-01T11:17:01.104Z,59.00
2019-05-01T11:19:29.789Z,58.70
2019-05-01T11:21:58.148Z,58.60
2019-05-01T11:24:26.514Z,58.40
2019-05-01T11:26:54.811Z,58.20
2019-05-01T11:29:23.101Z,58.00
2019-05-01T11:32:11.294Z,57.70
2019-05-01T11:34:41.295Z,57.70
2019-05-01T11:37:14.128Z,57.40
2019-05-01T11:39:44.123Z,57.30
2019-05-01T11:42:14.127Z,57.10
2019-05-01T11:44:42.431Z,56.90
2019-05-01T11:47:10.734Z,56.70
2019-05-01T11:49:39.091Z,56.60
2019-05-01T11:52:07.394Z,56.30
2019-05-01T11:54:35.683Z,56.10
2019-05-01T11:57:04.131Z,56.00
2019-05-01T11:59:32.849Z,55.80
2019-05-01T12:02:04.188Z,55.80
2019-05-01T12:04:32.543Z,56.10
2019-05-01T12:07:00.881Z,55.40
2019-05-01T12:09:29.253Z,55.40
2019-05-01T12:12:00.132Z,55.40
2019-05-01T12:14:28.685Z,55.50
2019-05-01T12:17:01.567Z,55.40
2019-05-01T12:19:35.681Z,55.40
2019-05-01T12:22:03.977Z,55.50
2019-05-01T12:24:32.344Z,55.50
2019-05-01T12:27:00.625Z,55.40
2019-05-01T12:29:29.102Z,55.30
2019-05-01T12:31:57.459Z,55.20
2019-05-01T12:34:25.769Z,55.10
2019-05-01T12:36:55.767Z,55.00
2019-05-01T12:39:24.067Z,54.80
2019-05-01T12:41:56.716Z,54.70
2019-05-01T12:44:25.025Z,54.70
2019-05-01T12:49:50.221Z,54.40
2019-05-01T12:52:22.948Z,54.20
2019-05-01T12:54:55.632Z,54.00
2019-05-01T12:57:23.914Z,53.80
2019-05-01T12:59:52.224Z,53.70
2019-05-01T13:02:20.547Z,53.60
2019-05-01T13:04:48.932Z,53.60
2019-05-01T13:07:17.279Z,53.50
2019-05-01T13:09:45.582Z,53.40
2019-05-01T13:12:13.940Z,53.30
2019-05-01T13:14:42.247Z,53.10
2019-05-01T13:17:10.620Z,52.90
2019-05-01T13:19:38.926Z,52.80
2019-05-01T13:22:07.208Z,52.70
2019-05-01T13:24:37.152Z,52.80
2019-05-01T13:27:09.901Z,52.80
2019-05-01T13:29:39.842Z,52.90
2019-05-01T13:32:09.849Z,52.80
2019-05-01T13:34:41.256Z,52.80
2019-05-01T13:37:08.344Z,52.90
2019-05-01T13:39:36.661Z,52.80
2019-05-01T13:42:05.228Z,52.90
2019-05-01T13:44:33.574Z,52.70
2019-05-01T13:47:01.896Z,52.60
2019-05-01T13:49:30.179Z,52.40
2019-05-01T13:51:59.058Z,52.20
2019-05-01T13:54:28.980Z,52.20
2019-05-01T13:56:57.363Z,52.30
2019-05-01T13:59:25.732Z,52.30
2019-05-01T14:01:54.034Z,52.30
2019-05-01T14:04:22.336Z,52.40
2019-05-01T14:06:56.026Z,52.50
2019-05-01T14:09:26.020Z,52.50
2019-05-01T14:11:54.325Z,52.50
2019-05-01T14:14:22.688Z,52.60
2019-05-01T14:16:51.062Z,52.50
2019-05-01T14:19:19.353Z,52.60
2019-05-01T14:21:55.341Z,52.60
2019-05-01T14:24:25.273Z,52.60
2019-05-01T14:26:53.683Z,52.70
2019-05-01T14:29:21.991Z,52.60
2019-05-01T14:31:50.285Z,52.60
2019-05-01T14:34:18.661Z,52.60
2019-05-01T14:36:46.957Z,52.60
2019-05-01T14:39:15.273Z,53.10
2019-05-01T14:41:46.583Z,52.50
2019-05-01T14:44:15.047Z,52.50
2019-05-01T14:46:43.424Z,52.50
2019-05-01T14:49:12.028Z,52.40
2019-05-01T14:51:40.335Z,52.90
2019-05-01T14:54:08.736Z,52.40
2019-05-01T14:56:37.111Z,52.40
2019-05-01T14:59:05.510Z,52.30
2019-05-01T15:01:33.889Z,52.30
2019-05-01T15:04:02.173Z,52.20
2019-05-01T15:06:30.547Z,52.20
2019-05-01T15:08:58.829Z,52.10
2019-05-01T15:11:27.158Z,52.10
2019-05-01T15:13:57.170Z,52.10
2019-05-01T15:16:42.448Z,52.10
2019-05-01T15:19:15.419Z,52.10
2019-05-01T15:21:43.788Z,52.10
2019-05-01T15:24:12.074Z,52.10
2019-05-01T15:26:40.460Z,52.10
2019-05-01T15:29:08.807Z,52.20
2019-05-01T15:31:37.179Z,52.20
2019-05-01T15:34:05.543Z,52.00
2019-05-01T15:36:33.908Z,52.10
2019-05-01T15:39:03.974Z,52.00
2019-05-01T15:41:50.271Z,52.00
2019-05-01T15:44:23.109Z,52.00
2019-05-01T15:46:51.422Z,52.10
2019-05-01T15:49:19.784Z,52.10
2019-05-01T15:51:48.153Z,52.10
2019-05-01T15:54:16.446Z,52.20
2019-05-01T15:56:44.795Z,52.20
2019-05-01T15:59:13.172Z,52.20
2019-05-01T16:01:41.920Z,52.20
2019-05-01T16:04:10.212Z,52.20
2019-05-01T16:06:38.533Z,52.20
2019-05-01T16:09:07.465Z,52.30
2019-05-01T16:11:53.560Z,52.40
2019-05-01T16:14:21.866Z,52.50
2019-05-01T16:16:50.174Z,52.50
2019-05-01T16:19:18.573Z,52.60
2019-05-01T16:21:46.992Z,52.70
2019-05-01T16:24:15.286Z,52.70
2019-05-01T16:26:43.576Z,52.80
2019-05-01T16:29:12.088Z,52.80
2019-05-01T16:31:40.422Z,52.80
2019-05-01T16:34:08.806Z,52.90
2019-05-01T16:36:37.084Z,52.80
2019-05-01T16:39:13.683Z,52.80
2019-05-01T16:41:46.370Z,52.90
2019-05-01T16:44:14.733Z,52.80
2019-05-01T16:46:43.037Z,52.90
2019-05-01T16:49:11.383Z,52.90
2019-05-01T16:51:39.696Z,53.00
2019-05-01T16:54:08.860Z,52.90
2019-05-01T16:56:37.177Z,52.80
2019-05-01T16:59:05.511Z,52.80
2019-05-01T17:01:41.264Z,52.80
2019-05-01T17:04:29.330Z,52.70
2019-05-01T17:07:03.321Z,52.60
2019-05-01T17:09:49.303Z,52.50
2019-05-01T17:12:19.238Z,52.40
2019-05-01T17:14:47.520Z,52.40
2019-05-01T17:17:17.438Z,52.60
2019-05-01T17:19:45.738Z,52.50
2019-05-01T17:22:16.006Z,52.50
2019-05-01T17:24:44.101Z,52.50
2019-05-01T17:27:12.413Z,52.50
2019-05-01T17:29:40.763Z,52.50
2019-05-01T17:32:10.764Z,52.40
2019-05-01T17:34:39.067Z,52.40
2019-05-01T17:37:07.351Z,52.40
2019-05-01T17:39:35.668Z,52.50
2019-05-01T17:42:04.570Z,52.50
2019-05-01T17:44:32.877Z,52.40
2019-05-01T17:47:01.223Z,52.30
2019-05-01T17:49:29.557Z,52.20
2019-05-01T17:51:57.857Z,52.10
2019-05-01T17:54:26.155Z,52.10
2019-05-01T17:56:55.793Z,52.10
2019-05-01T17:59:24.267Z,52.10
2019-05-01T18:01:59.656Z,52.10
2019-05-01T18:04:29.574Z,52.00
2019-05-01T18:06:57.873Z,52.00
2019-05-01T18:09:26.231Z,52.10
2019-05-01T18:11:54.541Z,52.10
2019-05-01T18:14:22.847Z,52.10
2019-05-01T18:16:51.173Z,52.10
2019-05-01T18:19:19.610Z,52.10
2019-05-01T18:21:51.864Z,52.20
2019-05-01T18:24:27.014Z,52.00
2019-05-01T18:27:14.748Z,52.10
2019-05-01T18:29:47.732Z,52.10
2019-05-01T18:32:23.951Z,52.00
2019-05-01T18:34:52.319Z,51.90
2019-05-01T18:37:34.731Z,52.00
2019-05-01T18:40:01.262Z,52.00
2019-05-01T18:42:29.616Z,52.00
2019-05-01T18:44:57.999Z,52.50
2019-05-01T18:47:26.824Z,52.40
2019-05-01T18:49:55.122Z,52.60
2019-05-01T18:52:23.512Z,52.70
2019-05-01T18:54:51.832Z,52.80
2019-05-01T18:57:20.196Z,52.90
2019-05-01T18:59:48.577Z,53.00
2019-05-01T19:02:20.419Z,53.30
2019-05-01T19:04:46.984Z,53.30
2019-05-01T19:07:15.330Z,53.40
2019-05-01T19:09:44.742Z,53.60
2019-05-01T19:12:13.178Z,53.70
2019-05-01T19:14:41.474Z,53.80
2019-05-01T19:17:09.846Z,54.50
2019-05-01T19:19:38.199Z,54.10
2019-05-01T19:22:08.204Z,54.20
2019-05-01T19:24:38.050Z,54.20
2019-05-01T19:27:06.558Z,54.30
2019-05-01T19:29:34.919Z,54.30
2019-05-01T19:32:03.235Z,54.50
2019-05-01T19:34:31.579Z,54.50
2019-05-01T19:36:59.970Z,54.60
2019-05-01T19:39:28.318Z,54.70
2019-05-01T19:41:56.600Z,54.80
2019-05-01T19:44:24.900Z,54.90
2019-05-01T19:46:53.204Z,54.90
2019-05-01T19:49:24.766Z,55.10
2019-05-01T19:51:55.432Z,55.10
2019-05-01T19:54:23.011Z,55.20
2019-05-01T19:56:51.594Z,55.20
2019-05-01T19:59:19.879Z,55.10
2019-05-01T20:01:49.647Z,55.10
2019-05-01T20:04:18.121Z,55.10
2019-05-01T20:06:46.469Z,55.10
2019-05-01T20:09:15.044Z,55.10
2019-05-01T20:11:43.447Z,55.10
2019-05-01T20:14:11.721Z,55.20
2019-05-01T20:16:40.041Z,55.30
2019-05-01T20:19:08.491Z,55.40
2019-05-01T20:21:36.842Z,55.40
2019-05-01T20:24:09.248Z,55.40
2019-05-01T20:26:35.161Z,55.40
2019-05-01T20:29:03.507Z,55.40
2019-05-01T20:31:32.901Z,55.40
2019-05-01T20:34:01.374Z,55.40
2019-05-01T20:36:29.657Z,55.40
2019-05-01T20:38:57.955Z,55.30
2019-05-01T20:41:26.305Z,55.40
2019-05-01T20:43:54.981Z,55.90
2019-05-01T20:46:25.952Z,55.40
2019-05-01T20:48:55.982Z,55.30
2019-05-01T20:51:23.289Z,55.30
2019-05-01T20:53:51.578Z,55.40
2019-05-01T20:56:21.503Z,55.30
2019-05-01T20:58:49.851Z,55.30
2019-05-01T21:01:18.155Z,55.30
2019-05-01T21:03:48.076Z,55.40
2019-05-01T21:06:18.083Z,55.50
2019-05-01T21:09:08.308Z,55.60
2019-05-01T21:11:47.367Z,55.60
2019-05-01T21:14:20.097Z,55.60
2019-05-01T21:16:44.204Z,55.60
2019-05-01T21:19:12.490Z,55.50
2019-05-01T21:21:41.031Z,56.10
2019-05-01T21:24:09.307Z,55.60
2019-05-01T21:26:37.721Z,55.60
2019-05-01T21:29:05.996Z,55.60
2019-05-01T21:31:34.296Z,56.00
2019-05-01T21:34:04.164Z,55.70
2019-05-01T21:36:32.751Z,55.70
2019-05-01T21:39:01.026Z,55.70
2019-05-01T21:41:29.320Z,55.80
2019-05-01T21:43:57.610Z,55.70
2019-05-01T21:46:25.977Z,55.80
2019-05-01T21:48:54.272Z,55.90
2019-05-01T21:51:22.810Z,55.90
2019-05-01T21:53:52.883Z,55.90
2019-05-01T21:56:21.212Z,56.00
2019-05-01T21:58:49.524Z,56.00
2019-05-01T22:01:17.952Z,56.00
2019-05-01T22:03:46.303Z,56.00
2019-05-01T22:06:15.373Z,56.00
2019-05-01T22:08:44.627Z,55.90
2019-05-01T22:11:12.942Z,55.90
2019-05-01T22:13:41.298Z,55.90
2019-05-01T22:16:22.421Z,56.00
2019-05-01T22:19:03.788Z,56.00
2019-05-01T22:21:36.644Z,56.00
2019-05-01T22:24:23.019Z,56.00
2019-05-01T22:27:02.183Z,55.90
2019-05-01T22:29:34.024Z,55.80
2019-05-01T22:32:12.783Z,55.80
2019-05-01T22:34:51.432Z,55.80
2019-05-01T22:37:19.795Z,55.80
2019-05-01T22:39:49.708Z,55.70
2019-05-01T22:42:18.018Z,55.70
2019-05-01T22:44:46.381Z,55.70
2019-05-01T22:47:15.364Z,55.60
2019-05-01T22:49:44.653Z,55.60
2019-05-01T22:52:12.932Z,55.50
2019-05-01T22:54:44.875Z,55.60
2019-05-01T22:57:11.228Z,55.60
2019-05-01T22:59:39.990Z,55.50
2019-05-01T23:02:28.490Z,55.50
2019-05-01T23:04:56.269Z,55.40
2019-05-01T23:07:24.550Z,55.40
2019-05-01T23:09:52.881Z,55.40
2019-05-01T23:12:21.160Z,55.40
2019-05-01T23:14:49.446Z,55.40
2019-05-01T23:17:22.089Z,55.40
2019-05-01T23:19:50.395Z,55.40
2019-05-01T23:22:18.947Z,55.30
2019-05-01T23:24:47.232Z,55.40
2019-05-01T23:27:15.515Z,55.20
2019-05-01T23:29:43.809Z,55.30
2019-05-01T23:32:12.233Z,55.20
2019-05-01T23:34:40.529Z,55.20
2019-05-01T23:37:08.875Z,55.20
2019-05-01T23:39:40.421Z,55.20
2019-05-01T23:42:07.179Z,55.20
2019-05-01T23:44:38.192Z,55.20
2019-05-01T23:47:05.465Z,55.10
2019-05-01T23:49:33.753Z,55.00
2019-05-01T23:52:03.442Z,55.00
2019-05-01T23:54:32.138Z,55.00
2019-05-01T23:57:00.427Z,55.10
2019-05-01T23:59:28.784Z,55.00
